createdAt,value
2019-04-21T00:00:27.599Z,5.36
2019-04-21T00:01:03.889Z,5.35
2019-04-21T00:01:38.778Z,5.34
2019-04-21T00:02:05.563Z,5.30
2019-04-21T00:02:39.721Z,5.28
2019-04-21T00:03:18.181Z,5.28
2019-04-21T00:03:50.243Z,5.29
2019-04-21T00:04:27.310Z,5.28
2019-04-21T00:04:57.939Z,5.28
2019-04-21T00:05:38.629Z,5.29
2019-04-21T00:06:18.402Z,5.27
2019-04-21T00:06:49.207Z,5.26
2019-04-21T00:07:20.333Z,5.26
2019-04-21T00:07:50.501Z,5.29
2019-04-21T00:08:33.637Z,5.32
2019-04-21T00:09:02.723Z,5.33
2019-04-21T00:09:33.718Z,5.32
2019-04-21T00:10:06.278Z,5.32
2019-04-21T00:10:44.030Z,5.31
2019-04-21T00:11:41.053Z,5.30
2019-04-21T00:12:48.948Z,5.29
2019-04-21T00:13:21.118Z,5.28
2019-04-21T00:13:47.006Z,5.29
2019-04-21T00:14:22.555Z,5.30
2019-04-21T00:14:49.748Z,5.27
2019-04-21T00:15:27.075Z,5.26
2019-04-21T00:15:53.820Z,5.25
2019-04-21T00:16:32.140Z,5.24
2019-04-21T00:17:02.771Z,5.24
2019-04-21T00:17:27.065Z,5.24
2019-04-21T00:18:02.420Z,5.28
2019-04-21T00:18:41.825Z,5.31
2019-04-21T00:19:11.880Z,5.33
2019-04-21T00:19:39.533Z,5.33
2019-04-21T00:20:20.469Z,5.35
2019-04-21T00:20:49.796Z,5.38
2019-04-21T00:21:26.566Z,5.40
2019-04-21T00:21:58.123Z,5.40
2019-04-21T00:22:34.493Z,5.40
2019-04-21T00:23:15.293Z,5.39
2019-04-21T00:23:41.166Z,5.38
2019-04-21T00:24:17.723Z,5.36
2019-04-21T00:24:52.137Z,5.37
2019-04-21T00:25:25.333Z,5.37
2019-04-21T00:25:54.207Z,5.35
2019-04-21T00:26:33.529Z,5.35
2019-04-21T00:27:03.902Z,5.33
2019-04-21T00:27:36.887Z,5.32
2019-04-21T00:28:20.144Z,5.28
2019-04-21T00:28:54.032Z,5.27
2019-04-21T00:29:21.287Z,5.29
2019-04-21T00:29:47.610Z,5.29
2019-04-21T00:30:27.498Z,5.30
2019-04-21T00:30:59.279Z,5.31
2019-04-21T00:31:27.059Z,5.31
2019-04-21T00:32:00.653Z,5.32
2019-04-21T00:32:29.220Z,5.31
2019-04-21T00:32:56.342Z,5.31
2019-04-21T00:33:26.657Z,5.31
2019-04-21T00:33:55.144Z,5.30
2019-04-21T00:34:28.105Z,5.30
2019-04-21T00:35:07.697Z,5.31
2019-04-21T00:35:41.445Z,5.29
2019-04-21T00:36:13.171Z,5.27
2019-04-21T00:36:48.820Z,5.27
2019-04-21T00:37:20.770Z,5.27
2019-04-21T00:38:04.833Z,5.29
2019-04-21T00:38:56.088Z,5.28
2019-04-21T00:39:20.913Z,5.29
2019-04-21T00:40:16.616Z,5.30
2019-04-21T00:40:54.093Z,5.31
2019-04-21T00:41:26.031Z,5.33
2019-04-21T00:41:57.716Z,5.35
2019-04-21T00:42:29.176Z,5.37
2019-04-21T00:42:59.884Z,5.36
2019-04-21T00:43:27.977Z,5.39
2019-04-21T00:44:00.709Z,5.37
2019-04-21T00:44:29.467Z,5.36
2019-04-21T00:45:09.786Z,5.34
2019-04-21T00:45:39.215Z,5.33
2019-04-21T00:46:08.476Z,5.31
2019-04-21T00:46:47.719Z,5.28
2019-04-21T00:47:26.666Z,5.27
2019-04-21T00:48:00.425Z,5.24
2019-04-21T00:48:32.932Z,5.25
2019-04-21T00:49:01.994Z,5.22
2019-04-21T00:49:26.930Z,5.20
2019-04-21T00:50:25.643Z,5.19
2019-04-21T00:50:53.217Z,5.17
2019-04-21T00:51:58.385Z,5.14
2019-04-21T00:52:30.315Z,5.13
2019-04-21T00:53:00.434Z,5.15
2019-04-21T00:53:38.480Z,5.14
2019-04-21T00:54:03.967Z,5.15
2019-04-21T00:54:46.371Z,5.16
2019-04-21T00:55:14.271Z,5.15
2019-04-21T00:55:44.602Z,5.15
2019-04-21T00:56:16.247Z,5.16
2019-04-21T00:56:49.601Z,5.16
2019-04-21T00:57:26.045Z,5.15
2019-04-21T00:57:58.639Z,5.12
2019-04-21T00:58:28.665Z,5.19
2019-04-21T00:58:59.580Z,5.23
2019-04-21T00:59:38.331Z,5.25
2019-04-21T01:00:06.967Z,5.26
2019-04-21T01:00:35.007Z,5.25
2019-04-21T01:01:09.105Z,5.24
2019-04-21T01:01:46.028Z,5.28
2019-04-21T01:02:09.424Z,5.31
2019-04-21T01:02:51.123Z,5.33
2019-04-21T01:03:23.045Z,5.33
2019-04-21T01:03:57.897Z,5.35
2019-04-21T01:04:33.761Z,5.36
2019-04-21T01:05:08.757Z,5.41
2019-04-21T01:05:36.590Z,5.44
2019-04-21T01:06:03.676Z,5.43
2019-04-21T01:06:42.814Z,5.41
2019-04-21T01:07:13.827Z,5.35
2019-04-21T01:07:41.053Z,5.34
2019-04-21T01:08:17.671Z,5.32
2019-04-21T01:08:46.829Z,5.27
2019-04-21T01:09:19.763Z,5.25
2019-04-21T01:09:48.788Z,5.23
2019-04-21T01:10:21.117Z,5.20
2019-04-21T01:10:56.951Z,5.18
2019-04-21T01:11:31.832Z,5.14
2019-04-21T01:12:08.372Z,3.22
2019-04-21T01:12:41.793Z,5.05
2019-04-21T01:13:16.886Z,5.02
2019-04-21T01:13:56.788Z,5.04
2019-04-21T01:14:29.875Z,5.04
2019-04-21T01:14:58.151Z,5.03
2019-04-21T01:15:31.164Z,5.01
2019-04-21T01:15:59.774Z,5.00
2019-04-21T01:16:33.224Z,4.98
2019-04-21T01:17:06.777Z,4.98
2019-04-21T01:17:35.673Z,4.95
2019-04-21T01:18:14.861Z,4.89
2019-04-21T01:18:42.729Z,4.87
2019-04-21T01:19:12.107Z,4.84
2019-04-21T01:19:47.030Z,4.84
2019-04-21T01:20:12.903Z,4.83
2019-04-21T01:20:33.424Z,4.78
2019-04-21T01:21:13.639Z,4.75
2019-04-21T01:21:37.588Z,4.62
2019-04-21T01:22:08.832Z,4.68
2019-04-21T01:22:40.080Z,4.67
2019-04-21T01:23:12.577Z,4.65
2019-04-21T01:23:44.557Z,4.63
2019-04-21T01:24:21.631Z,4.63
2019-04-21T01:24:57.866Z,4.60
2019-04-21T01:25:30.259Z,4.60
2019-04-21T01:26:10.634Z,4.60
2019-04-21T01:26:39.298Z,4.61
2019-04-21T01:27:11.137Z,4.62
2019-04-21T01:27:53.771Z,4.63
2019-04-21T01:28:27.028Z,4.65
2019-04-21T01:28:58.406Z,4.65
2019-04-21T01:29:39.132Z,4.65
2019-04-21T01:30:08.509Z,4.64
2019-04-21T01:30:40.992Z,4.63
2019-04-21T01:31:10.997Z,4.62
2019-04-21T01:31:42.227Z,4.60
2019-04-21T01:32:24.223Z,4.57
2019-04-21T01:32:55.792Z,4.55
2019-04-21T01:33:26.297Z,4.52
2019-04-21T01:34:01.257Z,4.51
2019-04-21T01:34:33.012Z,4.48
2019-04-21T01:35:02.630Z,4.47
2019-04-21T01:35:35.428Z,4.46
2019-04-21T01:36:03.750Z,4.45
2019-04-21T01:36:38.826Z,4.43
2019-04-21T01:37:10.895Z,4.44
2019-04-21T01:37:52.783Z,4.44
2019-04-21T01:38:24.505Z,4.46
2019-04-21T01:38:58.318Z,4.47
2019-04-21T01:39:30.807Z,4.48
2019-04-21T01:40:02.518Z,4.50
2019-04-21T01:40:34.861Z,4.52
2019-04-21T01:41:07.096Z,4.53
2019-04-21T01:41:42.836Z,4.55
2019-04-21T01:42:11.998Z,4.58
2019-04-21T01:42:45.493Z,4.58
2019-04-21T01:43:17.606Z,4.58
2019-04-21T01:43:51.549Z,4.57
2019-04-21T01:44:34.876Z,4.56
2019-04-21T01:44:59.467Z,4.56
2019-04-21T01:45:30.707Z,4.60
2019-04-21T01:46:03.933Z,4.60
2019-04-21T01:46:30.998Z,4.61
2019-04-21T01:47:02.823Z,4.59
2019-04-21T01:47:36.135Z,4.56
2019-04-21T01:48:10.935Z,4.54
2019-04-21T01:48:42.764Z,4.54
2019-04-21T01:49:13.052Z,4.51
2019-04-21T01:49:43.067Z,4.52
2019-04-21T01:50:22.209Z,4.57
2019-04-21T01:50:55.510Z,4.61
2019-04-21T01:51:29.594Z,4.62
2019-04-21T01:52:17.805Z,4.63
2019-04-21T01:52:44.161Z,4.63
2019-04-21T01:53:12.858Z,4.66
2019-04-21T01:53:42.452Z,4.67
2019-04-21T01:54:18.620Z,4.68
2019-04-21T01:54:53.405Z,4.66
2019-04-21T01:55:24.956Z,4.65
2019-04-21T01:55:54.301Z,4.63
2019-04-21T01:56:24.513Z,4.62
2019-04-21T01:56:58.510Z,4.58
2019-04-21T01:57:31.917Z,4.60
2019-04-21T01:58:02.093Z,4.59
2019-04-21T01:58:31.489Z,4.56
2019-04-21T01:59:02.721Z,4.56
2019-04-21T01:59:36.685Z,4.54
2019-04-21T02:00:12.273Z,4.53
2019-04-21T02:00:44.825Z,4.54
2019-04-21T02:01:26.129Z,4.52
2019-04-21T02:02:00.423Z,4.50
2019-04-21T02:02:32.193Z,4.50
2019-04-21T02:03:10.040Z,4.48
2019-04-21T02:04:11.727Z,4.50
2019-04-21T02:04:54.310Z,4.47
2019-04-21T02:05:17.453Z,4.45
2019-04-21T02:05:55.345Z,4.46
2019-04-21T02:06:21.386Z,4.47
2019-04-21T02:06:59.917Z,4.48
2019-04-21T02:07:27.521Z,4.47
2019-04-21T02:07:58.065Z,4.46
2019-04-21T02:08:34.615Z,4.47
2019-04-21T02:09:08.162Z,4.46
2019-04-21T02:09:38.065Z,4.45
2019-04-21T02:10:11.477Z,4.44
2019-04-21T02:10:46.277Z,4.43
2019-04-21T02:11:16.934Z,4.39
2019-04-21T02:11:55.110Z,4.37
2019-04-21T02:12:26.580Z,4.37
2019-04-21T02:12:56.754Z,4.36
2019-04-21T02:13:24.683Z,4.36
2019-04-21T02:14:41.246Z,4.32
2019-04-21T02:15:14.332Z,4.34
2019-04-21T02:15:42.329Z,4.36
2019-04-21T02:16:28.134Z,4.34
2019-04-21T02:16:47.781Z,4.35
2019-04-21T02:17:16.376Z,4.38
2019-04-21T02:17:57.487Z,4.38
2019-04-21T02:18:22.023Z,4.40
2019-04-21T02:18:54.497Z,4.39
2019-04-21T02:19:26.177Z,4.41
2019-04-21T02:19:57.799Z,4.41
2019-04-21T02:20:29.347Z,4.42
2019-04-21T02:20:58.018Z,4.41
2019-04-21T02:21:41.987Z,4.41
2019-04-21T02:22:21.569Z,4.38
2019-04-21T02:23:07.374Z,4.35
2019-04-21T02:23:58.726Z,4.33
2019-04-21T02:24:34.924Z,4.31
2019-04-21T02:25:02.842Z,4.31
2019-04-21T02:25:51.024Z,4.31
2019-04-21T02:26:09.824Z,4.31
2019-04-21T02:26:40.025Z,4.32
2019-04-21T02:27:17.704Z,4.32
2019-04-21T02:27:50.227Z,4.31
2019-04-21T02:28:31.803Z,4.31
2019-04-21T02:28:56.552Z,4.35
2019-04-21T02:29:28.567Z,4.36
2019-04-21T02:29:59.825Z,4.37
2019-04-21T02:30:49.245Z,4.39
2019-04-21T02:31:20.929Z,4.41
2019-04-21T02:31:45.199Z,4.41
2019-04-21T02:32:14.917Z,4.45
2019-04-21T02:34:02.660Z,4.48
2019-04-21T02:34:38.364Z,4.49
2019-04-21T02:36:22.715Z,4.44
2019-04-21T02:38:30.727Z,4.34
2019-04-21T02:40:05.123Z,4.29
2019-04-21T02:40:44.152Z,4.29
2019-04-21T02:41:05.815Z,4.28
2019-04-21T02:41:55.715Z,4.27
2019-04-21T02:42:07.880Z,4.26
2019-04-21T02:43:05.381Z,4.26
2019-04-21T02:44:00.691Z,4.23
2019-04-21T02:44:35.360Z,4.21
2019-04-21T02:45:00.385Z,4.23
2019-04-21T02:45:29.683Z,4.24
2019-04-21T02:46:12.570Z,4.26
2019-04-21T02:46:37.962Z,4.27
2019-04-21T02:47:07.137Z,4.25
2019-04-21T02:48:19.382Z,4.32
2019-04-21T02:48:56.417Z,4.34
2019-04-21T02:49:50.768Z,4.38
2019-04-21T02:50:31.725Z,4.40
2019-04-21T02:50:57.628Z,4.43
2019-04-21T02:51:42.147Z,4.47
2019-04-21T02:52:16.171Z,4.46
2019-04-21T02:52:43.671Z,4.45
2019-04-21T02:53:21.229Z,4.47
2019-04-21T02:54:31.486Z,4.51
2019-04-21T02:54:48.232Z,4.53
2019-04-21T02:54:54.008Z,4.49
2019-04-21T02:55:31.242Z,4.49
2019-04-21T02:56:01.092Z,4.46
2019-04-21T02:57:08.942Z,4.42
2019-04-21T02:57:41.477Z,4.43
2019-04-21T02:58:18.222Z,4.41
2019-04-21T02:58:59.482Z,4.42
2019-04-21T02:59:42.286Z,4.40
2019-04-21T03:00:30.291Z,4.34
2019-04-21T03:00:59.737Z,4.34
2019-04-21T03:01:38.213Z,4.29
2019-04-21T03:02:43.045Z,4.21
2019-04-21T03:05:50.745Z,4.20
2019-04-21T03:06:45.760Z,4.22
2019-04-21T03:07:09.306Z,4.24
2019-04-21T03:08:05.703Z,4.23
2019-04-21T03:08:42.791Z,4.21
2019-04-21T03:10:20.565Z,4.12
2019-04-21T03:10:53.253Z,4.11
2019-04-21T03:11:17.422Z,4.09
2019-04-21T03:12:05.249Z,4.11
2019-04-21T03:12:22.540Z,4.08
2019-04-21T03:13:08.131Z,4.06
2019-04-21T03:14:22.362Z,4.01
2019-04-21T03:14:48.118Z,4.02
2019-04-21T03:15:29.609Z,4.00
2019-04-21T03:15:47.216Z,4.00
2019-04-21T03:16:22.884Z,4.03
2019-04-21T03:16:47.182Z,4.02
2019-04-21T03:17:43.654Z,4.01
2019-04-21T03:18:07.566Z,4.01
2019-04-21T03:18:37.673Z,4.00
2019-04-21T03:19:05.019Z,3.99
2019-04-21T03:19:45.518Z,3.98
2019-04-21T03:20:15.078Z,3.98
2019-04-21T03:20:47.338Z,3.96
2019-04-21T03:21:52.509Z,3.92
2019-04-21T03:22:20.018Z,3.89
2019-04-21T03:23:00.186Z,3.88
2019-04-21T03:23:33.108Z,3.87
2019-04-21T03:24:01.206Z,3.85
2019-04-21T03:25:00.886Z,3.84
2019-04-21T03:25:51.971Z,3.84
2019-04-21T03:26:25.005Z,3.83
2019-04-21T03:27:01.385Z,3.82
2019-04-21T03:27:56.957Z,3.82
2019-04-21T03:28:24.196Z,3.83
2019-04-21T03:29:03.318Z,3.82
2019-04-21T03:29:34.898Z,3.82
2019-04-21T03:32:25.832Z,3.83
2019-04-21T03:33:06.017Z,3.84
2019-04-21T03:34:29.338Z,3.79
2019-04-21T03:34:51.450Z,3.78
2019-04-21T03:36:37.254Z,3.72
2019-04-21T03:37:02.745Z,3.70
2019-04-21T03:37:16.616Z,3.68
2019-04-21T03:38:18.896Z,3.67
2019-04-21T03:38:45.362Z,3.68
2019-04-21T03:39:35.073Z,3.66
2019-04-21T03:39:59.765Z,3.68
2019-04-21T03:40:26.708Z,3.70
2019-04-21T03:40:58.777Z,3.69
2019-04-21T03:41:39.971Z,3.72
2019-04-21T03:42:42.664Z,3.72
2019-04-21T03:43:12.722Z,3.72
2019-04-21T03:43:54.678Z,3.72
2019-04-21T03:45:34.847Z,3.73
2019-04-21T03:45:58.517Z,3.75
2019-04-21T03:47:08.366Z,3.87
2019-04-21T03:47:40.558Z,3.95
2019-04-21T03:48:14.811Z,4.00
2019-04-21T03:48:42.732Z,4.06
2019-04-21T03:49:23.036Z,4.14
2019-04-21T03:50:46.952Z,4.32
2019-04-21T03:51:25.820Z,4.34
2019-04-21T03:52:03.529Z,4.37
2019-04-21T03:53:39.984Z,4.44
2019-04-21T03:54:13.692Z,4.45
2019-04-21T03:54:54.114Z,4.48
2019-04-21T03:55:41.579Z,4.53
2019-04-21T03:55:58.709Z,4.62
2019-04-21T03:56:29.625Z,4.73
2019-04-21T03:57:08.854Z,4.80
2019-04-21T03:57:46.629Z,4.92
2019-04-21T03:58:15.207Z,5.05
2019-04-21T03:58:50.504Z,5.18
2019-04-21T03:59:45.526Z,5.44
2019-04-21T04:00:20.899Z,5.57
2019-04-21T04:01:17.963Z,5.71
2019-04-21T04:01:58.434Z,5.78
2019-04-21T04:02:45.123Z,5.79
2019-04-21T04:03:07.661Z,5.80
2019-04-21T04:04:34.196Z,5.72
2019-04-21T04:05:40.656Z,5.69
2019-04-21T04:06:01.960Z,5.68
2019-04-21T04:07:06.086Z,5.72
2019-04-21T04:08:03.890Z,5.85
2019-04-21T04:08:44.010Z,5.99
2019-04-21T04:09:40.064Z,6.34
2019-04-21T04:10:08.205Z,6.53
2019-04-21T04:10:50.334Z,6.70
2019-04-21T04:11:53.033Z,7.00
2019-04-21T04:12:50.349Z,7.25
2019-04-21T04:13:27.633Z,7.41
2019-04-21T04:15:07.152Z,7.87
2019-04-21T04:16:10.297Z,8.07
2019-04-21T04:16:47.471Z,8.25
2019-04-21T04:17:49.926Z,8.50
2019-04-21T04:18:33.428Z,8.64
2019-04-21T04:19:07.755Z,8.81
2019-04-21T04:20:24.049Z,9.19
2019-04-21T04:20:39.920Z,9.35
2019-04-21T04:21:13.313Z,9.37
2019-04-21T04:22:14.643Z,9.47
2019-04-21T04:22:52.608Z,9.46
2019-04-21T04:23:41.568Z,9.40
2019-04-21T04:24:00.864Z,9.44
2019-04-21T04:25:07.350Z,9.57
2019-04-21T04:25:28.075Z,9.66
2019-04-21T04:26:07.390Z,9.76
2019-04-21T04:27:22.450Z,9.95
2019-04-21T04:28:38.482Z,10.29
2019-04-21T04:28:58.026Z,10.42
2019-04-21T04:29:19.565Z,10.46
2019-04-21T04:29:59.207Z,10.48
2019-04-21T04:30:32.008Z,10.49
2019-04-21T04:31:05.663Z,10.57
2019-04-21T04:32:53.747Z,10.93
2019-04-21T04:33:22.795Z,11.03
2019-04-21T04:33:58.072Z,11.16
2019-04-21T04:34:24.838Z,11.25
2019-04-21T04:34:56.916Z,11.39
2019-04-21T04:35:34.495Z,11.53
2019-04-21T04:36:01.528Z,11.57
2019-04-21T04:37:29.561Z,11.77
2019-04-21T04:37:38.884Z,11.90
2019-04-21T04:38:13.136Z,12.02
2019-04-21T04:38:51.391Z,12.12
2019-04-21T04:39:36.727Z,12.23
2019-04-21T04:39:48.747Z,12.25
2019-04-21T04:44:03.220Z,13.01
2019-04-21T04:45:10.257Z,13.26
2019-04-21T04:46:02.191Z,13.44
2019-04-21T04:47:00.006Z,13.55
2019-04-21T04:48:28.950Z,13.49
2019-04-21T04:50:19.718Z,13.36
2019-04-21T04:50:53.559Z,13.28
2019-04-21T04:52:21.005Z,13.00
2019-04-21T04:52:37.851Z,13.23
2019-04-21T04:53:47.404Z,13.33
2019-04-21T04:55:00.704Z,13.67
2019-04-21T04:55:40.999Z,13.92
2019-04-21T04:56:56.364Z,14.26
2019-04-21T04:57:45.174Z,14.43
2019-04-21T05:00:01.212Z,14.96
2019-04-21T05:00:34.483Z,15.02
2019-04-21T05:01:14.755Z,15.18
2019-04-21T05:02:48.956Z,15.25
2019-04-21T05:03:36.456Z,15.10
2019-04-21T05:05:51.059Z,14.92
2019-04-21T05:06:34.849Z,14.56
2019-04-21T05:07:09.727Z,14.19
2019-04-21T05:08:23.930Z,13.96
2019-04-21T05:08:43.838Z,14.10
2019-04-21T05:09:41.385Z,14.17
2019-04-21T05:22:31.470Z,13.87
2019-04-21T05:22:58.193Z,13.82
2019-04-21T05:23:35.147Z,13.95
2019-04-21T05:24:01.388Z,14.01
2019-04-21T05:25:15.634Z,14.25
2019-04-21T05:25:49.971Z,13.84
2019-04-21T05:26:18.509Z,13.85
2019-04-21T05:26:55.412Z,13.84
2019-04-21T05:27:24.935Z,13.73
2019-04-21T05:28:01.058Z,13.74
2019-04-21T05:28:32.725Z,13.73
2019-04-21T05:29:09.010Z,13.85
2019-04-21T05:30:36.901Z,13.57
2019-04-21T05:31:14.083Z,13.78
2019-04-21T05:31:46.322Z,13.79
2019-04-21T05:32:13.381Z,13.80
2019-04-21T05:33:27.609Z,14.01
2019-04-21T05:34:06.096Z,14.15
2019-04-21T05:34:30.513Z,14.27
2019-04-21T05:35:10.849Z,14.38
2019-04-21T05:35:40.560Z,14.39
2019-04-21T05:36:52.095Z,13.97
2019-04-21T05:37:30.500Z,14.05
2019-04-21T05:38:02.016Z,14.12
2019-04-21T05:38:34.722Z,14.10
2019-04-21T05:39:07.190Z,14.01
2019-04-21T05:39:37.516Z,14.09
2019-04-21T05:40:10.535Z,14.10
2019-04-21T05:40:38.844Z,14.09
2019-04-21T05:41:52.890Z,13.99
2019-04-21T05:42:28.881Z,13.77
2019-04-21T05:43:07.978Z,13.51
2019-04-21T05:43:45.453Z,13.41
2019-04-21T05:44:21.039Z,13.48
2019-04-21T05:45:24.177Z,13.58
2019-04-21T05:46:02.562Z,13.52
2019-04-21T05:46:35.673Z,13.53
2019-04-21T05:47:55.915Z,13.75
2019-04-21T05:48:51.894Z,13.85
2019-04-21T05:57:25.431Z,13.64
2019-04-21T05:58:03.951Z,13.59
2019-04-21T05:59:13.796Z,13.48
2019-04-21T05:59:49.150Z,13.32
2019-04-21T06:00:23.681Z,13.16
2019-04-21T06:01:35.866Z,13.04
2019-04-21T06:02:15.208Z,13.00
2019-04-21T06:02:40.036Z,12.91
2019-04-21T06:03:57.352Z,12.90
2019-04-21T06:05:58.044Z,13.23
2019-04-21T06:06:20.673Z,13.22
2019-04-21T06:06:56.810Z,13.16
2019-04-21T06:07:28.803Z,13.22
2019-04-21T06:08:02.777Z,13.28
2019-04-21T06:09:57.196Z,13.03
2019-04-21T06:10:27.334Z,12.86
2019-04-21T06:11:04.806Z,11.96
2019-04-21T06:11:30.577Z,12.98
2019-04-21T06:12:03.173Z,13.02
2019-04-21T06:15:26.578Z,13.08
2019-04-21T06:15:56.265Z,13.12
2019-04-21T06:16:36.425Z,13.17
2019-04-21T06:17:01.519Z,13.21
2019-04-21T06:18:58.669Z,13.35
2019-04-21T06:19:36.705Z,13.25
2019-04-21T06:20:35.347Z,13.34
2019-04-21T06:24:29.953Z,13.53
2019-04-21T06:26:25.432Z,13.64
2019-04-21T06:29:13.352Z,13.59
2019-04-21T06:29:44.008Z,13.41
2019-04-21T06:31:29.129Z,13.31
2019-04-21T06:32:09.380Z,13.29
2019-04-21T06:33:51.558Z,13.05
2019-04-21T06:34:24.877Z,12.96
2019-04-21T06:35:40.211Z,12.82
2019-04-21T06:36:23.987Z,12.86
2019-04-21T06:37:21.895Z,12.83
2019-04-21T06:38:23.453Z,12.78
2019-04-21T06:39:00.019Z,12.82
2019-04-21T06:39:25.590Z,12.87
2019-04-21T06:40:43.828Z,13.03
2019-04-21T06:42:40.117Z,13.16
2019-04-21T06:43:18.279Z,13.05
2019-04-21T06:43:51.129Z,13.04
2019-04-21T06:46:30.855Z,13.15
2019-04-21T06:47:03.309Z,13.21
2019-04-21T06:48:22.460Z,13.21
2019-04-21T06:48:53.692Z,13.22
2019-04-21T06:49:16.210Z,13.30
2019-04-21T06:49:50.562Z,13.41
2019-04-21T06:50:30.203Z,13.51
2019-04-21T06:50:59.437Z,13.56
2019-04-21T06:53:10.737Z,13.57
2019-04-21T06:53:40.834Z,13.63
2019-04-21T06:54:10.190Z,13.73
2019-04-21T06:54:44.381Z,13.81
2019-04-21T06:57:23.129Z,13.92
2019-04-21T06:57:55.890Z,13.95
2019-04-21T06:58:25.217Z,13.99
2019-04-21T06:59:01.537Z,13.93
2019-04-21T06:59:31.668Z,13.82
2019-04-21T07:01:26.550Z,13.58
2019-04-21T07:02:13.180Z,13.61
2019-04-21T07:03:43.930Z,13.60
2019-04-21T07:05:15.433Z,13.65
2019-04-21T07:05:52.458Z,13.76
2019-04-21T07:06:20.088Z,13.80
2019-04-21T07:07:33.291Z,13.75
2019-04-21T07:08:54.390Z,13.77
2019-04-21T07:09:57.234Z,13.99
2019-04-21T07:10:30.498Z,14.01
2019-04-21T07:11:05.394Z,14.08
2019-04-21T07:14:29.372Z,14.47
2019-04-21T07:14:59.513Z,14.48
2019-04-21T07:16:15.330Z,14.41
2019-04-21T07:16:44.718Z,14.45
2019-04-21T07:20:07.262Z,14.51
2019-04-21T07:23:17.484Z,14.57
2019-04-21T07:27:52.336Z,14.95
2019-04-21T07:28:28.512Z,15.03
2019-04-21T07:29:02.889Z,15.09
2019-04-21T07:29:34.445Z,15.21
2019-04-21T07:30:04.322Z,15.37
2019-04-21T07:31:17.868Z,15.54
2019-04-21T07:39:00.248Z,15.14
2019-04-21T07:39:32.568Z,15.11
2019-04-21T07:53:29.777Z,16.51
2019-04-21T07:54:44.435Z,16.30
2019-04-21T07:56:06.544Z,15.77
2019-04-21T07:56:34.992Z,16.22
2019-04-21T08:04:14.977Z,16.34
2019-04-21T08:05:20.000Z,16.71
2019-04-21T08:05:53.723Z,16.88
2019-04-21T08:06:26.847Z,17.06
2019-04-21T08:07:01.253Z,17.14
2019-04-21T08:07:41.527Z,17.27
2019-04-21T08:08:15.900Z,17.32
2019-04-21T08:08:34.245Z,17.38
2019-04-21T08:09:09.044Z,17.40
2019-04-21T08:09:40.989Z,17.39
2019-04-21T08:10:09.113Z,17.33
2019-04-21T08:10:44.297Z,17.35
2019-04-21T08:11:19.649Z,17.34
2019-04-21T08:11:50.033Z,17.45
2019-04-21T08:12:20.106Z,17.57
2019-04-21T08:12:54.221Z,17.72
2019-04-21T08:13:45.888Z,17.79
2019-04-21T08:14:11.623Z,17.77
2019-04-21T08:14:45.962Z,17.83
2019-04-21T08:15:18.245Z,17.89
2019-04-21T08:15:59.559Z,18.00
2019-04-21T08:16:18.697Z,18.06
2019-04-21T08:16:56.034Z,18.17
2019-04-21T08:17:28.475Z,18.25
2019-04-21T08:17:57.089Z,18.40
2019-04-21T08:18:33.518Z,18.48
2019-04-21T08:19:09.187Z,18.33
2019-04-21T08:19:35.421Z,18.04
2019-04-21T08:20:09.602Z,17.94
2019-04-21T08:20:38.736Z,17.85
2019-04-21T08:21:15.116Z,17.70
2019-04-21T08:21:54.102Z,17.70
2019-04-21T08:22:27.164Z,17.72
2019-04-21T08:22:58.919Z,17.82
2019-04-21T08:23:25.377Z,17.84
2019-04-21T08:23:54.830Z,17.92
2019-04-21T08:24:37.221Z,18.02
2019-04-21T08:25:03.255Z,18.08
2019-04-21T08:25:50.845Z,18.09
2019-04-21T08:26:07.939Z,18.13
2019-04-21T08:26:45.154Z,18.18
2019-04-21T08:27:18.948Z,18.13
2019-04-21T08:28:25.917Z,18.09
2019-04-21T08:29:01.075Z,18.19
2019-04-21T08:29:33.381Z,18.28
2019-04-21T08:30:01.484Z,18.38
2019-04-21T08:30:47.524Z,18.45
2019-04-21T08:31:09.831Z,18.53
2019-04-21T08:31:50.681Z,18.56
2019-04-21T08:32:18.098Z,18.62
2019-04-21T08:33:24.681Z,18.84
2019-04-21T08:33:56.476Z,18.94
2019-04-21T08:34:28.397Z,19.06
2019-04-21T08:36:11.017Z,19.15
2019-04-21T08:36:19.072Z,19.29
2019-04-21T08:36:33.957Z,19.38
2019-04-21T08:37:12.270Z,19.49
2019-04-21T08:37:43.184Z,19.64
2019-04-21T08:38:20.045Z,19.73
2019-04-21T08:38:54.066Z,19.72
2019-04-21T08:39:33.156Z,19.79
2019-04-21T08:40:12.281Z,19.86
2019-04-21T08:41:08.661Z,19.95
2019-04-21T08:41:39.454Z,19.97
2019-04-21T08:42:15.534Z,19.99
2019-04-21T08:42:44.800Z,19.99
2019-04-21T08:43:27.538Z,19.95
2019-04-21T08:43:53.207Z,19.97
2019-04-21T08:44:26.178Z,19.95
2019-04-21T08:44:54.117Z,19.98
2019-04-21T08:45:35.365Z,20.04
2019-04-21T08:46:06.722Z,20.14
2019-04-21T08:46:44.686Z,20.23
2019-04-21T08:47:14.141Z,20.25
2019-04-21T08:47:47.692Z,20.23
2019-04-21T08:48:18.136Z,20.18
2019-04-21T08:48:58.970Z,20.01
2019-04-21T08:49:22.307Z,19.88
2019-04-21T08:50:03.506Z,19.81
2019-04-21T08:50:30.920Z,19.75
2019-04-21T08:51:22.506Z,19.71
2019-04-21T08:51:50.455Z,19.65
2019-04-21T08:52:29.495Z,19.73
2019-04-21T08:53:24.783Z,19.80
2019-04-21T08:54:15.266Z,19.85
2019-04-21T08:54:26.474Z,19.90
2019-04-21T08:55:05.608Z,19.89
2019-04-21T08:55:39.745Z,19.85
2019-04-21T08:56:10.035Z,19.87
2019-04-21T08:56:43.532Z,19.92
2019-04-21T08:57:19.674Z,19.97
2019-04-21T08:57:58.318Z,20.03
2019-04-21T08:58:57.534Z,20.09
2019-04-21T08:59:30.941Z,19.94
2019-04-21T09:00:08.800Z,19.96
2019-04-21T09:01:08.851Z,20.01
2019-04-21T09:01:43.160Z,20.05
2019-04-21T09:02:18.165Z,20.11
2019-04-21T09:02:47.579Z,20.16
2019-04-21T09:03:21.324Z,20.14
2019-04-21T09:03:56.637Z,20.16
2019-04-21T09:04:26.174Z,20.20
2019-04-21T09:05:01.475Z,20.18
2019-04-21T09:05:34.312Z,20.14
2019-04-21T09:06:09.275Z,20.15
2019-04-21T09:06:54.182Z,20.03
2019-04-21T09:07:12.810Z,19.83
2019-04-21T09:07:49.564Z,19.78
2019-04-21T09:08:20.244Z,19.77
2019-04-21T09:08:58.307Z,19.77
2019-04-21T09:09:29.110Z,19.81
2019-04-21T09:10:16.820Z,19.71
2019-04-21T09:10:35.449Z,19.55
2019-04-21T09:11:09.774Z,19.40
2019-04-21T09:11:42.102Z,19.23
2019-04-21T09:12:10.934Z,19.19
2019-04-21T09:13:17.217Z,19.22
2019-04-21T09:13:55.855Z,19.28
2019-04-21T09:14:27.328Z,19.32
2019-04-21T09:15:03.098Z,19.37
2019-04-21T09:15:31.124Z,19.50
2019-04-21T09:16:05.125Z,19.58
2019-04-21T09:16:39.677Z,19.67
2019-04-21T09:17:08.060Z,19.71
2019-04-21T09:17:41.199Z,19.73
2019-04-21T09:18:18.554Z,19.78
2019-04-21T09:18:47.323Z,19.73
2019-04-21T09:19:42.422Z,19.64
2019-04-21T09:20:07.999Z,19.64
2019-04-21T09:20:40.161Z,19.62
2019-04-21T09:21:46.920Z,19.64
2019-04-21T09:22:13.207Z,19.69
2019-04-21T09:23:24.203Z,19.83
2019-04-21T09:23:56.032Z,19.91
2019-04-21T09:24:29.446Z,19.96
2019-04-21T09:25:01.460Z,19.99
2019-04-21T09:25:42.471Z,20.03
2019-04-21T09:26:05.107Z,20.01
2019-04-21T09:26:43.170Z,20.06
2019-04-21T09:27:15.383Z,20.08
2019-04-21T09:27:47.020Z,20.11
2019-04-21T09:28:22.678Z,20.14
2019-04-21T09:28:49.415Z,20.01
2019-04-21T09:29:21.703Z,19.83
2019-04-21T09:29:46.732Z,19.62
2019-04-21T09:30:15.510Z,19.57
2019-04-21T09:30:53.510Z,19.60
2019-04-21T09:31:26.021Z,19.70
2019-04-21T09:31:55.528Z,19.87
2019-04-21T09:33:00.516Z,20.23
2019-04-21T09:33:39.058Z,20.46
2019-04-21T09:34:08.372Z,20.69
2019-04-21T09:34:43.767Z,20.96
2019-04-21T09:35:16.925Z,21.22
2019-04-21T09:35:55.468Z,21.50
2019-04-21T09:36:25.086Z,21.79
2019-04-21T09:37:10.470Z,22.03
2019-04-21T09:37:39.715Z,22.25
2019-04-21T09:38:12.670Z,22.46
2019-04-21T09:38:38.481Z,22.64
2019-04-21T09:39:12.974Z,22.87
2019-04-21T09:39:43.937Z,23.06
2019-04-21T09:40:14.980Z,23.14
2019-04-21T09:40:49.051Z,22.87
2019-04-21T09:41:22.431Z,23.04
2019-04-21T09:41:54.418Z,22.98
2019-04-21T09:43:03.179Z,21.50
2019-04-21T09:43:40.264Z,21.86
2019-04-21T09:44:08.746Z,21.99
2019-04-21T09:44:43.597Z,22.21
2019-04-21T09:45:12.598Z,22.41
2019-04-21T09:45:45.373Z,22.54
2019-04-21T09:46:16.605Z,22.56
2019-04-21T09:46:54.028Z,22.64
2019-04-21T09:47:24.513Z,22.72
2019-04-21T09:48:00.796Z,22.85
2019-04-21T09:48:28.105Z,22.96
2019-04-21T09:49:05.375Z,23.04
2019-04-21T09:49:33.950Z,23.13
2019-04-21T09:50:06.634Z,23.10
2019-04-21T09:50:39.577Z,23.08
2019-04-21T09:51:11.093Z,22.95
2019-04-21T09:51:43.758Z,22.78
2019-04-21T09:52:23.203Z,22.63
2019-04-21T09:52:57.487Z,22.53
2019-04-21T09:53:29.462Z,22.51
2019-04-21T09:54:01.979Z,22.46
2019-04-21T09:54:32.024Z,22.27
2019-04-21T09:55:06.937Z,22.23
2019-04-21T09:55:43.978Z,22.25
2019-04-21T09:56:13.142Z,22.15
2019-04-21T09:56:47.327Z,22.06
2019-04-21T09:57:24.035Z,21.97
2019-04-21T09:57:53.380Z,21.96
2019-04-21T09:58:29.284Z,22.02